sensor_id;sensor_type;location;lat;lon;timestamp;temperature;humidity
58993;DHT22;44782;0.000;0.000;2023-08-17T00:00:05;24.60;60.00
58993;DHT22;44782;0.000;0.000;2023-08-17T00:02:25;24.60;59.90
58993;DHT22;44782;0.000;0.000;2023-08-17T00:04:40;24.60;60.00
58993;DHT22;44782;0.000;0.000;2023-08-17T00:06:56;24.60;60.00
58993;DHT22;44782;0.000;0.000;2023-08-17T00:09:12;24.60;60.00
58993;DHT22;44782;0.000;0.000;2023-08-17T00:11:28;24.60;59.90
58993;DHT22;44782;0.000;0.000;2023-08-17T00:13:43;24.60;59.90
58993;DHT22;44782;0.000;0.000;2023-08-17T00:15:59;24.60;60.00
58993;DHT22;44782;0.000;0.000;2023-08-17T00:18:15;24.60;60.00
58993;DHT22;44782;0.000;0.000;2023-08-17T00:20:31;24.60;59.90
58993;DHT22;44782;0.000;0.000;2023-08-17T00:22:46;24.60;59.90
58993;DHT22;44782;0.000;0.000;2023-08-17T00:25:02;24.60;60.00
58993;DHT22;44782;0.000;0.000;2023-08-17T00:27:20;24.60;59.90
58993;DHT22;44782;0.000;0.000;2023-08-17T00:29:36;24.60;59.90
58993;DHT22;44782;0.000;0.000;2023-08-17T00:31:51;24.60;59.90
58993;DHT22;44782;0.000;0.000;2023-08-17T00:34:07;24.60;59.90
58993;DHT22;44782;0.000;0.000;2023-08-17T00:36:23;24.60;59.90
58993;DHT22;44782;0.000;0.000;2023-08-17T00:38:39;24.60;59.90
58993;DHT22;44782;0.000;0.000;2023-08-17T00:40:54;24.60;59.90
58993;DHT22;44782;0.000;0.000;2023-08-17T00:43:10;24.60;60.00
58993;DHT22;44782;0.000;0.000;2023-08-17T00:45:26;24.60;60.10
58993;DHT22;44782;0.000;0.000;2023-08-17T00:47:42;24.50;59.90
58993;DHT22;44782;0.000;0.000;2023-08-17T00:49:58;24.60;60.30
58993;DHT22;44782;0.000;0.000;2023-08-17T00:52:14;24.50;59.90
58993;DHT22;44782;0.000;0.000;2023-08-17T00:54:30;24.50;59.90
58993;DHT22;44782;0.000;0.000;2023-08-17T00:56:46;24.60;59.90
58993;DHT22;44782;0.000;0.000;2023-08-17T00:59:02;24.50;59.90
58993;DHT22;44782;0.000;0.000;2023-08-17T01:01:19;24.50;59.90
58993;DHT22;44782;0.000;0.000;2023-08-17T01:03:34;24.50;59.90
58993;DHT22;44782;0.000;0.000;2023-08-17T01:05:51;24.50;59.90
58993;DHT22;44782;0.000;0.000;2023-08-17T01:08:06;24.50;59.90
58993;DHT22;44782;0.000;0.000;2023-08-17T01:10:22;24.50;59.90
58993;DHT22;44782;0.000;0.000;2023-08-17T01:17:29;24.50;59.80
58993;DHT22;44782;0.000;0.000;2023-08-17T01:19:45;24.50;59.80
58993;DHT22;44782;0.000;0.000;2023-08-17T01:22:03;24.50;59.90
58993;DHT22;44782;0.000;0.000;2023-08-17T01:24:20;24.50;59.90
58993;DHT22;44782;0.000;0.000;2023-08-17T01:26:36;24.50;59.90
58993;DHT22;44782;0.000;0.000;2023-08-17T01:28:51;24.50;59.90
58993;DHT22;44782;0.000;0.000;2023-08-17T01:31:24;24.50;59.90
58993;DHT22;44782;0.000;0.000;2023-08-17T01:33:56;24.50;59.70
58993;DHT22;44782;0.000;0.000;2023-08-17T01:36:20;24.50;59.80
58993;DHT22;44782;0.000;0.000;2023-08-17T01:38:38;24.50;59.80
58993;DHT22;44782;0.000;0.000;2023-08-17T01:40:57;24.50;59.90
58993;DHT22;44782;0.000;0.000;2023-08-17T01:43:13;24.50;59.90
58993;DHT22;44782;0.000;0.000;2023-08-17T01:45:32;24.50;59.90
58993;DHT22;44782;0.000;0.000;2023-08-17T01:47:49;24.50;59.90
58993;DHT22;44782;0.000;0.000;2023-08-17T01:50:05;24.50;59.90
58993;DHT22;44782;0.000;0.000;2023-08-17T01:52:21;24.50;59.90
58993;DHT22;44782;0.000;0.000;2023-08-17T01:54:36;24.50;59.90
58993;DHT22;44782;0.000;0.000;2023-08-17T01:56:52;24.50;59.90
58993;DHT22;44782;0.000;0.000;2023-08-17T01:59:07;24.50;59.90
58993;DHT22;44782;0.000;0.000;2023-08-17T02:01:23;24.50;59.90
58993;DHT22;44782;0.000;0.000;2023-08-17T02:03:39;24.40;59.80
58993;DHT22;44782;0.000;0.000;2023-08-17T02:05:58;24.40;60.10
58993;DHT22;44782;0.000;0.000;2023-08-17T02:08:14;24.40;59.70
58993;DHT22;44782;0.000;0.000;2023-08-17T02:10:30;24.40;59.80
58993;DHT22;44782;0.000;0.000;2023-08-17T02:12:45;24.50;59.90
58993;DHT22;44782;0.000;0.000;2023-08-17T02:15:02;24.40;59.80
58993;DHT22;44782;0.000;0.000;2023-08-17T02:17:18;24.40;59.80
58993;DHT22;44782;0.000;0.000;2023-08-17T02:19:34;24.40;59.80
58993;DHT22;44782;0.000;0.000;2023-08-17T02:21:50;24.50;59.90
58993;DHT22;44782;0.000;0.000;2023-08-17T02:24:06;24.40;59.80
58993;DHT22;44782;0.000;0.000;2023-08-17T02:26:22;24.40;59.80
58993;DHT22;44782;0.000;0.000;2023-08-17T02:28:37;24.40;59.80
58993;DHT22;44782;0.000;0.000;2023-08-17T02:30:57;24.40;59.80
58993;DHT22;44782;0.000;0.000;2023-08-17T02:33:13;24.40;59.70
58993;DHT22;44782;0.000;0.000;2023-08-17T02:35:30;24.40;59.80
58993;DHT22;44782;0.000;0.000;2023-08-17T02:37:45;24.40;59.80
58993;DHT22;44782;0.000;0.000;2023-08-17T02:40:01;24.40;59.80
58993;DHT22;44782;0.000;0.000;2023-08-17T02:42:18;24.40;59.80
58993;DHT22;44782;0.000;0.000;2023-08-17T02:44:34;24.40;59.80
58993;DHT22;44782;0.000;0.000;2023-08-17T02:46:50;24.40;59.80
58993;DHT22;44782;0.000;0.000;2023-08-17T02:49:06;24.40;59.80
58993;DHT22;44782;0.000;0.000;2023-08-17T02:51:22;24.40;59.80
58993;DHT22;44782;0.000;0.000;2023-08-17T02:53:38;24.40;59.80
58993;DHT22;44782;0.000;0.000;2023-08-17T02:55:54;24.40;59.80
58993;DHT22;44782;0.000;0.000;2023-08-17T02:58:09;24.30;59.70
58993;DHT22;44782;0.000;0.000;2023-08-17T03:00:25;24.40;59.80
58993;DHT22;44782;0.000;0.000;2023-08-17T03:02:41;24.40;59.80
58993;DHT22;44782;0.000;0.000;2023-08-17T03:04:57;24.30;59.70
58993;DHT22;44782;0.000;0.000;2023-08-17T03:07:13;24.40;59.80
58993;DHT22;44782;0.000;0.000;2023-08-17T03:09:29;24.30;59.70
58993;DHT22;44782;0.000;0.000;2023-08-17T03:11:44;24.30;59.80
58993;DHT22;44782;0.000;0.000;2023-08-17T03:14:00;24.40;59.80
58993;DHT22;44782;0.000;0.000;2023-08-17T03:16:16;24.30;59.70
58993;DHT22;44782;0.000;0.000;2023-08-17T03:18:31;24.30;59.70
58993;DHT22;44782;0.000;0.000;2023-08-17T03:20:47;24.30;59.70
58993;DHT22;44782;0.000;0.000;2023-08-17T03:23:03;24.30;59.70
58993;DHT22;44782;0.000;0.000;2023-08-17T03:25:21;24.30;60.50
58993;DHT22;44782;0.000;0.000;2023-08-17T03:27:37;24.30;59.70
58993;DHT22;44782;0.000;0.000;2023-08-17T03:29:53;24.30;59.70
58993;DHT22;44782;0.000;0.000;2023-08-17T03:32:09;24.30;59.70
58993;DHT22;44782;0.000;0.000;2023-08-17T03:34:24;24.30;59.80
58993;DHT22;44782;0.000;0.000;2023-08-17T03:36:40;24.30;59.80
58993;DHT22;44782;0.000;0.000;2023-08-17T03:38:55;24.30;59.70
58993;DHT22;44782;0.000;0.000;2023-08-17T03:41:11;24.30;60.50
58993;DHT22;44782;0.000;0.000;2023-08-17T03:43:26;24.30;59.70
58993;DHT22;44782;0.000;0.000;2023-08-17T03:45:42;24.30;59.70
58993;DHT22;44782;0.000;0.000;2023-08-17T03:47:58;24.30;59.70
58993;DHT22;44782;0.000;0.000;2023-08-17T03:50:13;24.30;59.80
58993;DHT22;44782;0.000;0.000;2023-08-17T03:52:29;24.30;59.70
58993;DHT22;44782;0.000;0.000;2023-08-17T03:54:45;24.30;59.70
58993;DHT22;44782;0.000;0.000;2023-08-17T03:57:01;24.20;59.70
58993;DHT22;44782;0.000;0.000;2023-08-17T03:59:16;24.30;59.70
58993;DHT22;44782;0.000;0.000;2023-08-17T04:01:32;24.30;59.70
58993;DHT22;44782;0.000;0.000;2023-08-17T04:03:48;24.20;59.70
58993;DHT22;44782;0.000;0.000;2023-08-17T04:06:06;24.20;60.40
58993;DHT22;44782;0.000;0.000;2023-08-17T04:08:25;24.20;59.60
58993;DHT22;44782;0.000;0.000;2023-08-17T04:10:41;24.20;59.70
58993;DHT22;44782;0.000;0.000;2023-08-17T04:12:56;24.20;59.70
58993;DHT22;44782;0.000;0.000;2023-08-17T04:15:12;24.20;59.70
58993;DHT22;44782;0.000;0.000;2023-08-17T04:17:28;24.20;59.70
58993;DHT22;44782;0.000;0.000;2023-08-17T04:19:43;24.20;59.70
58993;DHT22;44782;0.000;0.000;2023-08-17T04:21:59;24.20;59.70
58993;DHT22;44782;0.000;0.000;2023-08-17T04:24:15;24.20;59.70
58993;DHT22;44782;0.000;0.000;2023-08-17T04:26:30;24.20;59.70
58993;DHT22;44782;0.000;0.000;2023-08-17T04:28:46;24.20;59.70
58993;DHT22;44782;0.000;0.000;2023-08-17T04:31:02;24.20;59.70
58993;DHT22;44782;0.000;0.000;2023-08-17T04:33:17;24.20;59.70
58993;DHT22;44782;0.000;0.000;2023-08-17T04:35:33;24.20;59.60
58993;DHT22;44782;0.000;0.000;2023-08-17T04:37:49;24.20;59.70
58993;DHT22;44782;0.000;0.000;2023-08-17T04:40:05;24.20;59.60
58993;DHT22;44782;0.000;0.000;2023-08-17T04:42:21;24.20;59.70
58993;DHT22;44782;0.000;0.000;2023-08-17T04:44:37;24.20;59.70
58993;DHT22;44782;0.000;0.000;2023-08-17T04:46:52;24.20;59.70
58993;DHT22;44782;0.000;0.000;2023-08-17T04:49:08;24.20;59.70
58993;DHT22;44782;0.000;0.000;2023-08-17T04:51:24;24.20;59.70
58993;DHT22;44782;0.000;0.000;2023-08-17T04:53:39;24.10;59.60
58993;DHT22;44782;0.000;0.000;2023-08-17T04:55:55;24.10;59.50
58993;DHT22;44782;0.000;0.000;2023-08-17T04:58:11;24.10;59.60
58993;DHT22;44782;0.000;0.000;2023-08-17T05:00:26;24.10;59.60
58993;DHT22;44782;0.000;0.000;2023-08-17T05:02:46;24.10;59.60
58993;DHT22;44782;0.000;0.000;2023-08-17T05:05:05;24.10;59.60
58993;DHT22;44782;0.000;0.000;2023-08-17T05:07:21;24.10;60.30
58993;DHT22;44782;0.000;0.000;2023-08-17T05:09:37;24.10;59.60
58993;DHT22;44782;0.000;0.000;2023-08-17T05:11:52;24.10;59.60
58993;DHT22;44782;0.000;0.000;2023-08-17T05:14:08;24.10;59.60
58993;DHT22;44782;0.000;0.000;2023-08-17T05:16:24;24.10;59.70
58993;DHT22;44782;0.000;0.000;2023-08-17T05:18:40;24.10;59.60
58993;DHT22;44782;0.000;0.000;2023-08-17T05:20:55;24.10;59.60
58993;DHT22;44782;0.000;0.000;2023-08-17T05:23:11;24.10;59.60
58993;DHT22;44782;0.000;0.000;2023-08-17T05:25:26;24.10;59.60
58993;DHT22;44782;0.000;0.000;2023-08-17T05:27:43;24.10;59.60
58993;DHT22;44782;0.000;0.000;2023-08-17T05:29:58;24.10;59.60
58993;DHT22;44782;0.000;0.000;2023-08-17T05:32:14;24.10;59.60
58993;DHT22;44782;0.000;0.000;2023-08-17T05:34:30;24.10;59.60
58993;DHT22;44782;0.000;0.000;2023-08-17T05:36:45;24.10;59.60
58993;DHT22;44782;0.000;0.000;2023-08-17T05:39:01;24.10;59.60
58993;DHT22;44782;0.000;0.000;2023-08-17T05:41:16;24.10;59.50
58993;DHT22;44782;0.000;0.000;2023-08-17T05:43:33;24.10;59.50
58993;DHT22;44782;0.000;0.000;2023-08-17T05:45:48;24.10;59.50
58993;DHT22;44782;0.000;0.000;2023-08-17T05:48:04;24.10;59.50
58993;DHT22;44782;0.000;0.000;2023-08-17T05:50:20;24.10;59.50
58993;DHT22;44782;0.000;0.000;2023-08-17T05:52:35;24.10;59.50
58993;DHT22;44782;0.000;0.000;2023-08-17T05:54:51;24.10;59.50
58993;DHT22;44782;0.000;0.000;2023-08-17T05:57:07;24.10;59.50
58993;DHT22;44782;0.000;0.000;2023-08-17T05:59:23;24.10;59.50
58993;DHT22;44782;0.000;0.000;2023-08-17T06:01:39;24.10;59.50
58993;DHT22;44782;0.000;0.000;2023-08-17T06:03:55;24.10;59.50
58993;DHT22;44782;0.000;0.000;2023-08-17T06:06:11;24.10;59.50
58993;DHT22;44782;0.000;0.000;2023-08-17T06:08:26;24.10;59.50
58993;DHT22;44782;0.000;0.000;2023-08-17T06:10:42;24.10;59.50
58993;DHT22;44782;0.000;0.000;2023-08-17T06:12:58;24.10;59.50
58993;DHT22;44782;0.000;0.000;2023-08-17T06:15:14;24.10;59.50
58993;DHT22;44782;0.000;0.000;2023-08-17T06:17:29;24.10;59.50
58993;DHT22;44782;0.000;0.000;2023-08-17T06:19:45;24.10;59.50
58993;DHT22;44782;0.000;0.000;2023-08-17T06:22:01;24.00;59.50
58993;DHT22;44782;0.000;0.000;2023-08-17T06:24:17;24.10;59.50
58993;DHT22;44782;0.000;0.000;2023-08-17T06:26:32;24.10;59.50
58993;DHT22;44782;0.000;0.000;2023-08-17T06:28:48;24.10;59.50
58993;DHT22;44782;0.000;0.000;2023-08-17T06:31:04;24.10;59.40
58993;DHT22;44782;0.000;0.000;2023-08-17T06:33:20;24.10;59.40
58993;DHT22;44782;0.000;0.000;2023-08-17T06:35:35;24.10;59.40
58993;DHT22;44782;0.000;0.000;2023-08-17T06:37:51;24.00;59.30
58993;DHT22;44782;0.000;0.000;2023-08-17T06:40:09;24.10;59.40
58993;DHT22;44782;0.000;0.000;2023-08-17T06:42:25;24.10;59.30
58993;DHT22;44782;0.000;0.000;2023-08-17T06:44:40;24.10;59.30
58993;DHT22;44782;0.000;0.000;2023-08-17T06:46:56;24.00;59.30
58993;DHT22;44782;0.000;0.000;2023-08-17T06:49:12;24.10;59.30
58993;DHT22;44782;0.000;0.000;2023-08-17T06:51:28;24.00;59.30
58993;DHT22;44782;0.000;0.000;2023-08-17T06:53:43;24.10;59.30
58993;DHT22;44782;0.000;0.000;2023-08-17T06:55:59;24.10;59.30
58993;DHT22;44782;0.000;0.000;2023-08-17T06:58:15;24.10;59.30
58993;DHT22;44782;0.000;0.000;2023-08-17T07:00:30;24.00;59.20
58993;DHT22;44782;0.000;0.000;2023-08-17T07:02:50;24.10;59.30
58993;DHT22;44782;0.000;0.000;2023-08-17T07:05:06;24.10;59.20
58993;DHT22;44782;0.000;0.000;2023-08-17T07:07:22;24.00;59.30
58993;DHT22;44782;0.000;0.000;2023-08-17T07:09:37;24.10;59.30
58993;DHT22;44782;0.000;0.000;2023-08-17T07:11:53;24.00;59.30
58993;DHT22;44782;0.000;0.000;2023-08-17T07:14:09;24.10;59.30
58993;DHT22;44782;0.000;0.000;2023-08-17T07:16:25;24.00;59.30
58993;DHT22;44782;0.000;0.000;2023-08-17T07:18:40;24.00;59.30
58993;DHT22;44782;0.000;0.000;2023-08-17T07:20:56;24.00;59.30
58993;DHT22;44782;0.000;0.000;2023-08-17T07:23:11;24.10;59.40
58993;DHT22;44782;0.000;0.000;2023-08-17T07:25:27;24.00;59.40
58993;DHT22;44782;0.000;0.000;2023-08-17T07:27:43;24.00;59.40
58993;DHT22;44782;0.000;0.000;2023-08-17T07:29:58;24.10;59.50
58993;DHT22;44782;0.000;0.000;2023-08-17T07:32:14;24.10;59.50
58993;DHT22;44782;0.000;0.000;2023-08-17T07:34:30;24.00;59.50
58993;DHT22;44782;0.000;0.000;2023-08-17T07:36:46;24.10;59.60
58993;DHT22;44782;0.000;0.000;2023-08-17T07:39:02;24.00;59.60
58993;DHT22;44782;0.000;0.000;2023-08-17T07:41:17;24.00;59.60
58993;DHT22;44782;0.000;0.000;2023-08-17T07:43:33;24.10;59.70
58993;DHT22;44782;0.000;0.000;2023-08-17T07:45:56;24.00;59.70
58993;DHT22;44782;0.000;0.000;2023-08-17T07:48:12;24.10;59.70
58993;DHT22;44782;0.000;0.000;2023-08-17T07:50:28;24.00;59.70
58993;DHT22;44782;0.000;0.000;2023-08-17T07:52:43;24.00;59.70
58993;DHT22;44782;0.000;0.000;2023-08-17T07:54:59;24.10;59.80
58993;DHT22;44782;0.000;0.000;2023-08-17T07:57:15;24.10;60.00
58993;DHT22;44782;0.000;0.000;2023-08-17T07:59:30;24.10;59.90
58993;DHT22;44782;0.000;0.000;2023-08-17T08:01:46;24.00;59.90
58993;DHT22;44782;0.000;0.000;2023-08-17T08:04:02;24.10;60.00
58993;DHT22;44782;0.000;0.000;2023-08-17T08:06:18;24.10;60.00
58993;DHT22;44782;0.000;0.000;2023-08-17T08:08:35;24.10;60.10
58993;DHT22;44782;0.000;0.000;2023-08-17T08:10:53;24.10;60.10
58993;DHT22;44782;0.000;0.000;2023-08-17T08:13:08;24.10;60.50
58993;DHT22;44782;0.000;0.000;2023-08-17T08:15:24;24.10;60.20
58993;DHT22;44782;0.000;0.000;2023-08-17T08:17:40;24.10;61.00
58993;DHT22;44782;0.000;0.000;2023-08-17T08:19:55;24.10;60.30
58993;DHT22;44782;0.000;0.000;2023-08-17T08:22:11;24.10;60.40
58993;DHT22;44782;0.000;0.000;2023-08-17T08:24:27;24.10;60.30
58993;DHT22;44782;0.000;0.000;2023-08-17T08:26:46;24.10;60.40
58993;DHT22;44782;0.000;0.000;2023-08-17T08:29:02;24.10;60.50
58993;DHT22;44782;0.000;0.000;2023-08-17T08:31:17;24.10;61.20
58993;DHT22;44782;0.000;0.000;2023-08-17T08:33:33;24.10;60.40
58993;DHT22;44782;0.000;0.000;2023-08-17T08:35:49;24.10;60.40
58993;DHT22;44782;0.000;0.000;2023-08-17T08:38:04;24.10;60.40
58993;DHT22;44782;0.000;0.000;2023-08-17T08:40:26;24.10;60.30
58993;DHT22;44782;0.000;0.000;2023-08-17T08:42:42;24.10;60.40
58993;DHT22;44782;0.000;0.000;2023-08-17T08:44:57;24.20;60.60
58993;DHT22;44782;0.000;0.000;2023-08-17T08:47:13;24.20;60.60
58993;DHT22;44782;0.000;0.000;2023-08-17T08:49:30;24.10;60.50
58993;DHT22;44782;0.000;0.000;2023-08-17T08:51:49;24.10;60.60
58993;DHT22;44782;0.000;0.000;2023-08-17T08:54:08;24.10;60.50
58993;DHT22;44782;0.000;0.000;2023-08-17T08:56:26;24.20;60.70
58993;DHT22;44782;0.000;0.000;2023-08-17T08:58:42;24.20;61.30
58993;DHT22;44782;0.000;0.000;2023-08-17T09:01:01;24.20;60.60
58993;DHT22;44782;0.000;0.000;2023-08-17T09:03:18;24.20;60.60
58993;DHT22;44782;0.000;0.000;2023-08-17T09:05:39;24.20;60.60
58993;DHT22;44782;0.000;0.000;2023-08-17T09:08:00;24.20;60.70
58993;DHT22;44782;0.000;0.000;2023-08-17T09:13:03;24.20;60.70
58993;DHT22;44782;0.000;0.000;2023-08-17T09:15:19;24.20;60.60
58993;DHT22;44782;0.000;0.000;2023-08-17T09:17:35;24.20;60.70
58993;DHT22;44782;0.000;0.000;2023-08-17T09:19:50;24.20;60.70
58993;DHT22;44782;0.000;0.000;2023-08-17T09:22:06;24.20;60.60
58993;DHT22;44782;0.000;0.000;2023-08-17T09:24:22;24.20;60.70
58993;DHT22;44782;0.000;0.000;2023-08-17T09:26:38;24.20;60.70
58993;DHT22;44782;0.000;0.000;2023-08-17T09:28:53;24.20;60.60
58993;DHT22;44782;0.000;0.000;2023-08-17T09:31:09;24.20;60.70
58993;DHT22;44782;0.000;0.000;2023-08-17T09:33:27;24.20;60.60
58993;DHT22;44782;0.000;0.000;2023-08-17T09:35:43;24.20;60.70
58993;DHT22;44782;0.000;0.000;2023-08-17T09:37:59;24.30;60.80
58993;DHT22;44782;0.000;0.000;2023-08-17T09:40:14;24.20;60.80
58993;DHT22;44782;0.000;0.000;2023-08-17T09:42:34;24.20;60.80
58993;DHT22;44782;0.000;0.000;2023-08-17T09:44:50;24.20;60.80
58993;DHT22;44782;0.000;0.000;2023-08-17T09:47:06;24.20;60.80
58993;DHT22;44782;0.000;0.000;2023-08-17T09:49:25;24.20;60.90
58993;DHT22;44782;0.000;0.000;2023-08-17T09:51:43;24.30;61.00
58993;DHT22;44782;0.000;0.000;2023-08-17T09:53:59;24.30;61.00
58993;DHT22;44782;0.000;0.000;2023-08-17T09:56:15;24.30;60.90
58993;DHT22;44782;0.000;0.000;2023-08-17T09:58:31;24.20;60.80
58993;DHT22;44782;0.000;0.000;2023-08-17T10:00:48;24.30;61.00
58993;DHT22;44782;0.000;0.000;2023-08-17T10:03:05;24.30;61.00
58993;DHT22;44782;0.000;0.000;2023-08-17T10:05:21;24.30;61.00
58993;DHT22;44782;0.000;0.000;2023-08-17T10:07:42;24.30;60.90
58993;DHT22;44782;0.000;0.000;2023-08-17T10:10:05;24.30;61.00
58993;DHT22;44782;0.000;0.000;2023-08-17T10:12:23;24.30;61.30
58993;DHT22;44782;0.000;0.000;2023-08-17T10:14:50;24.30;61.00
58993;DHT22;44782;0.000;0.000;2023-08-17T10:17:09;24.30;61.10
58993;DHT22;44782;0.000;0.000;2023-08-17T10:19:37;24.30;61.10
58993;DHT22;44782;0.000;0.000;2023-08-17T10:24:34;24.30;61.20
58993;DHT22;44782;0.000;0.000;2023-08-17T10:26:53;24.30;61.20
58993;DHT22;44782;0.000;0.000;2023-08-17T10:29:09;24.30;61.20
58993;DHT22;44782;0.000;0.000;2023-08-17T10:31:25;24.30;61.10
58993;DHT22;44782;0.000;0.000;2023-08-17T10:33:42;24.30;61.20
58993;DHT22;44782;0.000;0.000;2023-08-17T10:36:01;24.30;61.10
58993;DHT22;44782;0.000;0.000;2023-08-17T10:38:17;24.30;61.10
58993;DHT22;44782;0.000;0.000;2023-08-17T10:40:41;24.30;61.10
58993;DHT22;44782;0.000;0.000;2023-08-17T10:42:56;24.30;61.00
58993;DHT22;44782;0.000;0.000;2023-08-17T10:47:37;24.40;60.90
58993;DHT22;44782;0.000;0.000;2023-08-17T10:50:04;24.30;61.00
58993;DHT22;44782;0.000;0.000;2023-08-17T10:52:36;24.30;61.00
58993;DHT22;44782;0.000;0.000;2023-08-17T10:54:55;24.40;60.90
58993;DHT22;44782;0.000;0.000;2023-08-17T10:57:31;24.30;61.10
58993;DHT22;44782;0.000;0.000;2023-08-17T10:59:46;24.40;61.20
58993;DHT22;44782;0.000;0.000;2023-08-17T11:02:22;24.40;61.40
58993;DHT22;44782;0.000;0.000;2023-08-17T11:04:38;24.30;61.40
58993;DHT22;44782;0.000;0.000;2023-08-17T11:07:02;24.40;61.50
58993;DHT22;44782;0.000;0.000;2023-08-17T11:09:22;24.40;61.80
58993;DHT22;44782;0.000;0.000;2023-08-17T11:11:37;24.40;61.70
58993;DHT22;44782;0.000;0.000;2023-08-17T11:13:53;24.40;61.50
58993;DHT22;44782;0.000;0.000;2023-08-17T11:16:11;24.40;61.70
58993;DHT22;44782;0.000;0.000;2023-08-17T11:18:27;24.40;61.70
58993;DHT22;44782;0.000;0.000;2023-08-17T11:20:43;24.50;61.70
58993;DHT22;44782;0.000;0.000;2023-08-17T11:22:59;24.50;61.80
58993;DHT22;44782;0.000;0.000;2023-08-17T11:25:15;24.50;61.70
58993;DHT22;44782;0.000;0.000;2023-08-17T11:27:31;24.50;61.80
58993;DHT22;44782;0.000;0.000;2023-08-17T11:29:47;24.50;61.80
58993;DHT22;44782;0.000;0.000;2023-08-17T11:32:03;24.50;61.80
58993;DHT22;44782;0.000;0.000;2023-08-17T11:34:20;24.50;61.70
58993;DHT22;44782;0.000;0.000;2023-08-17T11:36:37;24.50;61.70
58993;DHT22;44782;0.000;0.000;2023-08-17T11:38:53;24.50;61.80
58993;DHT22;44782;0.000;0.000;2023-08-17T11:41:09;24.50;61.80
58993;DHT22;44782;0.000;0.000;2023-08-17T11:43:25;24.50;61.80
58993;DHT22;44782;0.000;0.000;2023-08-17T11:45:41;24.60;61.80
58993;DHT22;44782;0.000;0.000;2023-08-17T11:47:57;24.60;61.80
58993;DHT22;44782;0.000;0.000;2023-08-17T11:50:13;24.60;61.80
58993;DHT22;44782;0.000;0.000;2023-08-17T11:52:29;24.60;61.80
58993;DHT22;44782;0.000;0.000;2023-08-17T11:54:48;24.60;61.80
58993;DHT22;44782;0.000;0.000;2023-08-17T11:57:03;24.60;61.80
58993;DHT22;44782;0.000;0.000;2023-08-17T11:59:19;24.60;61.70
58993;DHT22;44782;0.000;0.000;2023-08-17T12:01:35;24.60;61.70
58993;DHT22;44782;0.000;0.000;2023-08-17T12:03:51;24.60;61.70
58993;DHT22;44782;0.000;0.000;2023-08-17T12:06:07;24.60;61.70
58993;DHT22;44782;0.000;0.000;2023-08-17T12:08:24;24.60;61.60
58993;DHT22;44782;0.000;0.000;2023-08-17T12:10:40;24.60;61.70
58993;DHT22;44782;0.000;0.000;2023-08-17T12:12:58;24.60;61.60
58993;DHT22;44782;0.000;0.000;2023-08-17T12:15:16;24.60;61.50
58993;DHT22;44782;0.000;0.000;2023-08-17T12:17:32;24.60;61.50
58993;DHT22;44782;0.000;0.000;2023-08-17T12:19:54;24.60;61.50
58993;DHT22;44782;0.000;0.000;2023-08-17T12:22:12;24.60;61.40
58993;DHT22;44782;0.000;0.000;2023-08-17T12:24:28;24.60;61.40
58993;DHT22;44782;0.000;0.000;2023-08-17T12:26:46;24.60;61.50
58993;DHT22;44782;0.000;0.000;2023-08-17T12:29:05;24.60;61.30
58993;DHT22;44782;0.000;0.000;2023-08-17T12:31:22;24.60;61.30
58993;DHT22;44782;0.000;0.000;2023-08-17T12:33:38;24.60;61.40
58993;DHT22;44782;0.000;0.000;2023-08-17T12:35:54;24.60;61.40
58993;DHT22;44782;0.000;0.000;2023-08-17T12:38:10;24.70;61.50
58993;DHT22;44782;0.000;0.000;2023-08-17T12:40:25;24.70;61.50
58993;DHT22;44782;0.000;0.000;2023-08-17T12:42:41;24.60;61.60
58993;DHT22;44782;0.000;0.000;2023-08-17T12:44:57;24.60;61.60
58993;DHT22;44782;0.000;0.000;2023-08-17T12:47:13;24.60;61.50
58993;DHT22;44782;0.000;0.000;2023-08-17T12:49:28;24.60;61.60
58993;DHT22;44782;0.000;0.000;2023-08-17T12:51:44;24.70;61.70
58993;DHT22;44782;0.000;0.000;2023-08-17T12:54:00;24.60;61.50
58993;DHT22;44782;0.000;0.000;2023-08-17T12:56:16;24.60;61.50
58993;DHT22;44782;0.000;0.000;2023-08-17T12:58:31;24.60;61.50
58993;DHT22;44782;0.000;0.000;2023-08-17T13:00:47;24.60;61.50
58993;DHT22;44782;0.000;0.000;2023-08-17T13:03:05;24.70;61.70
58993;DHT22;44782;0.000;0.000;2023-08-17T13:05:21;24.60;61.60
58993;DHT22;44782;0.000;0.000;2023-08-17T13:07:37;24.60;61.60
58993;DHT22;44782;0.000;0.000;2023-08-17T13:09:52;24.70;61.70
58993;DHT22;44782;0.000;0.000;2023-08-17T13:12:08;24.60;61.60
58993;DHT22;44782;0.000;0.000;2023-08-17T13:14:24;24.60;61.70
58993;DHT22;44782;0.000;0.000;2023-08-17T13:16:40;24.60;61.80
58993;DHT22;44782;0.000;0.000;2023-08-17T13:18:56;24.60;61.70
58993;DHT22;44782;0.000;0.000;2023-08-17T13:21:11;24.70;61.80
58993;DHT22;44782;0.000;0.000;2023-08-17T13:23:31;24.70;61.70
58993;DHT22;44782;0.000;0.000;2023-08-17T13:25:46;24.70;61.60
58993;DHT22;44782;0.000;0.000;2023-08-17T13:28:02;24.70;61.70
58993;DHT22;44782;0.000;0.000;2023-08-17T13:30:18;24.70;61.70
58993;DHT22;44782;0.000;0.000;2023-08-17T13:32:33;24.70;61.70
58993;DHT22;44782;0.000;0.000;2023-08-17T13:34:49;24.70;61.70
58993;DHT22;44782;0.000;0.000;2023-08-17T13:37:05;24.70;61.70
58993;DHT22;44782;0.000;0.000;2023-08-17T13:39:20;24.70;61.70
58993;DHT22;44782;0.000;0.000;2023-08-17T13:41:36;24.70;61.50
58993;DHT22;44782;0.000;0.000;2023-08-17T13:43:52;24.70;61.70
58993;DHT22;44782;0.000;0.000;2023-08-17T13:46:10;24.70;61.70
58993;DHT22;44782;0.000;0.000;2023-08-17T13:48:27;24.70;61.70
58993;DHT22;44782;0.000;0.000;2023-08-17T13:50:43;24.70;61.70
58993;DHT22;44782;0.000;0.000;2023-08-17T13:53:00;24.70;61.70
58993;DHT22;44782;0.000;0.000;2023-08-17T13:55:16;24.70;61.70
58993;DHT22;44782;0.000;0.000;2023-08-17T13:57:31;24.70;61.70
58993;DHT22;44782;0.000;0.000;2023-08-17T13:59:47;24.70;61.50
58993;DHT22;44782;0.000;0.000;2023-08-17T14:02:03;24.70;61.50
58993;DHT22;44782;0.000;0.000;2023-08-17T14:04:19;24.70;61.50
58993;DHT22;44782;0.000;0.000;2023-08-17T14:06:34;24.70;61.50
58993;DHT22;44782;0.000;0.000;2023-08-17T14:08:50;24.80;61.70
58993;DHT22;44782;0.000;0.000;2023-08-17T14:11:06;24.70;61.70
58993;DHT22;44782;0.000;0.000;2023-08-17T14:13:22;24.70;61.60
58993;DHT22;44782;0.000;0.000;2023-08-17T14:15:38;24.70;61.80
58993;DHT22;44782;0.000;0.000;2023-08-17T14:17:53;24.80;61.80
58993;DHT22;44782;0.000;0.000;2023-08-17T14:20:09;24.80;61.70
58993;DHT22;44782;0.000;0.000;2023-08-17T14:22:25;24.80;61.80
58993;DHT22;44782;0.000;0.000;2023-08-17T14:24:41;24.80;61.80
58993;DHT22;44782;0.000;0.000;2023-08-17T14:26:56;24.80;61.80
58993;DHT22;44782;0.000;0.000;2023-08-17T14:29:13;24.80;61.70
58993;DHT22;44782;0.000;0.000;2023-08-17T14:31:29;24.80;61.70
58993;DHT22;44782;0.000;0.000;2023-08-17T14:33:45;24.80;61.80
58993;DHT22;44782;0.000;0.000;2023-08-17T14:36:04;24.80;61.80
58993;DHT22;44782;0.000;0.000;2023-08-17T14:38:20;24.80;61.80
58993;DHT22;44782;0.000;0.000;2023-08-17T14:40:36;24.80;61.80
58993;DHT22;44782;0.000;0.000;2023-08-17T14:42:52;24.90;62.40
58993;DHT22;44782;0.000;0.000;2023-08-17T14:45:08;24.90;62.00
58993;DHT22;44782;0.000;0.000;2023-08-17T14:47:23;24.90;62.00